createdAt,value
2018-06-24T00:00:30.407Z,60.70
2018-06-24T00:02:59.271Z,60.60
2018-06-24T00:05:27.949Z,61.00
2018-06-24T00:07:56.455Z,61.10
2018-06-24T00:10:25.096Z,61.10
2018-06-24T00:12:53.613Z,61.30
2018-06-24T00:15:22.258Z,61.50
2018-06-24T00:17:50.770Z,61.30
2018-06-24T00:20:19.400Z,61.40
2018-06-24T00:22:48.120Z,61.70
2018-06-24T00:25:16.644Z,61.70
2018-06-24T00:27:45.145Z,61.90
2018-06-24T00:30:13.914Z,62.00
2018-06-24T00:32:42.405Z,62.20
2018-06-24T00:35:10.996Z,62.30
2018-06-24T00:37:39.532Z,62.00
2018-06-24T00:40:08.752Z,62.10
2018-06-24T00:42:37.319Z,62.40
2018-06-24T00:47:34.018Z,62.50
2018-06-24T00:50:02.637Z,62.50
2018-06-24T00:52:31.183Z,62.80
2018-06-24T00:54:59.879Z,63.00
2018-06-24T00:57:28.407Z,63.40
2018-06-24T01:00:08.193Z,63.40
2018-06-24T01:02:36.799Z,63.50
2018-06-24T01:05:05.468Z,63.80
2018-06-24T01:07:33.984Z,63.70
2018-06-24T01:10:02.468Z,63.80
2018-06-24T01:12:30.971Z,64.10
2018-06-24T01:14:59.917Z,65.10
2018-06-24T01:17:28.488Z,64.40
2018-06-24T01:19:58.661Z,64.40
2018-06-24T01:24:56.816Z,64.60
2018-06-24T01:27:25.684Z,64.30
2018-06-24T01:29:54.194Z,64.40
2018-06-24T01:32:23.372Z,64.30
2018-06-24T01:34:52.099Z,64.30
2018-06-24T01:37:20.600Z,64.60
2018-06-24T01:39:49.064Z,64.80
2018-06-24T01:42:17.631Z,66.00
2018-06-24T01:44:46.144Z,65.20
2018-06-24T01:47:14.648Z,64.90
2018-06-24T01:49:43.123Z,65.00
2018-06-24T01:52:11.618Z,64.90
2018-06-24T01:54:40.140Z,64.70
2018-06-24T01:57:08.749Z,64.80
2018-06-24T01:59:37.288Z,64.80
2018-06-24T02:02:05.781Z,64.90
2018-06-24T02:04:34.300Z,65.10
2018-06-24T02:07:02.932Z,65.60
2018-06-24T02:09:31.429Z,65.40
2018-06-24T02:11:59.915Z,65.20
2018-06-24T02:14:28.430Z,65.40
2018-06-24T02:16:57.002Z,65.60
2018-06-24T02:19:25.552Z,65.70
2018-06-24T02:21:54.064Z,65.60
2018-06-24T02:24:22.607Z,65.60
2018-06-24T02:26:51.142Z,65.60
2018-06-24T02:29:19.675Z,65.50
2018-06-24T02:31:48.199Z,65.90
2018-06-24T02:34:16.713Z,66.10
2018-06-24T02:36:45.317Z,65.80
2018-06-24T02:39:13.812Z,65.60
2018-06-24T02:41:42.871Z,65.10
2018-06-24T02:44:11.368Z,65.00
2018-06-24T02:46:39.939Z,65.30
2018-06-24T02:49:08.418Z,65.60
2018-06-24T02:51:36.916Z,66.00
2018-06-24T02:54:05.480Z,66.30
2018-06-24T02:56:34.069Z,66.20
2018-06-24T02:59:02.578Z,66.10
2018-06-24T03:01:31.110Z,66.40
2018-06-24T03:06:27.902Z,66.30
2018-06-24T03:08:56.421Z,65.90
2018-06-24T03:11:25.044Z,65.90
2018-06-24T03:13:53.634Z,66.10
2018-06-24T03:16:22.278Z,66.00
2018-06-24T03:18:50.840Z,66.30
2018-06-24T03:21:19.449Z,66.50
2018-06-24T03:23:47.953Z,66.40
2018-06-24T03:26:16.573Z,66.60
2018-06-24T03:28:45.159Z,66.60
2018-06-24T03:31:13.687Z,67.00
2018-06-24T03:33:42.184Z,67.10
2018-06-24T03:36:10.801Z,67.10
2018-06-24T03:38:39.343Z,67.00
2018-06-24T03:41:07.883Z,67.10
2018-06-24T03:43:36.380Z,66.90
2018-06-24T03:46:04.932Z,66.50
2018-06-24T03:48:33.504Z,66.10
2018-06-24T03:51:01.996Z,66.10
2018-06-24T03:53:30.576Z,66.30
2018-06-24T03:55:59.162Z,66.30
2018-06-24T03:58:27.791Z,66.40
2018-06-24T04:00:56.409Z,66.80
2018-06-24T04:03:24.988Z,68.00
2018-06-24T04:05:53.571Z,67.50
2018-06-24T04:08:22.303Z,67.80
2018-06-24T04:10:50.791Z,67.90
2018-06-24T04:13:19.421Z,68.10
2018-06-24T04:15:48.109Z,68.20
2018-06-24T04:18:16.943Z,68.30
2018-06-24T04:20:45.624Z,68.50
2018-06-24T04:23:14.153Z,68.70
2018-06-24T04:25:42.710Z,68.80
2018-06-24T04:28:11.264Z,68.70
2018-06-24T04:30:40.628Z,69.50
2018-06-24T04:33:09.362Z,68.70
2018-06-24T04:35:37.952Z,68.70
2018-06-24T04:38:06.517Z,68.90
2018-06-24T04:40:35.042Z,68.80
2018-06-24T04:43:03.537Z,68.70
2018-06-24T04:45:32.279Z,69.60
2018-06-24T04:48:01.006Z,69.00
2018-06-24T04:50:29.552Z,69.00
2018-06-24T04:52:58.174Z,69.10
2018-06-24T04:55:26.684Z,69.20
2018-06-24T04:57:55.296Z,69.40
2018-06-24T05:00:24.024Z,69.70
2018-06-24T05:02:52.870Z,69.60
2018-06-24T05:05:21.634Z,69.70
2018-06-24T05:07:50.375Z,69.80
2018-06-24T05:10:19.205Z,69.90
2018-06-24T05:12:47.839Z,69.90
2018-06-24T05:15:16.412Z,70.00
2018-06-24T05:17:45.069Z,70.10
2018-06-24T05:20:13.848Z,70.00
2018-06-24T05:22:42.526Z,70.00
2018-06-24T05:25:11.292Z,70.20
2018-06-24T05:27:40.091Z,70.50
2018-06-24T05:30:08.719Z,70.70
2018-06-24T05:32:37.333Z,70.90
2018-06-24T05:35:05.945Z,70.80
2018-06-24T05:37:34.468Z,71.10
2018-06-24T05:40:03.070Z,71.20
2018-06-24T05:42:31.608Z,71.50
2018-06-24T05:45:00.116Z,71.20
2018-06-24T05:47:28.828Z,71.40
2018-06-24T05:49:57.427Z,71.80
2018-06-24T05:52:25.981Z,71.80
2018-06-24T05:54:54.904Z,71.90
2018-06-24T05:57:24.064Z,71.90
2018-06-24T05:59:52.987Z,72.00
2018-06-24T06:02:21.544Z,72.10
2018-06-24T06:04:50.098Z,72.50
2018-06-24T06:07:18.592Z,72.60
2018-06-24T06:09:48.021Z,72.90
2018-06-24T06:12:16.980Z,72.80
2018-06-24T06:14:45.995Z,72.70
2018-06-24T06:17:14.556Z,73.10
2018-06-24T06:19:43.436Z,73.30
2018-06-24T06:22:12.909Z,73.60
2018-06-24T06:27:10.101Z,74.10
2018-06-24T06:29:38.948Z,74.00
2018-06-24T06:32:07.451Z,73.40
2018-06-24T06:34:35.988Z,72.70
2018-06-24T06:37:04.826Z,72.60
2018-06-24T06:42:01.969Z,72.40
2018-06-24T06:44:30.483Z,71.50
2018-06-24T06:46:59.215Z,71.80
2018-06-24T06:49:27.831Z,71.80
2018-06-24T06:51:56.554Z,71.70
2018-06-24T06:54:25.051Z,70.90
2018-06-24T06:56:53.613Z,71.20
2018-06-24T06:59:22.350Z,69.20
2018-06-24T07:01:50.909Z,69.80
2018-06-24T07:04:19.678Z,69.40
2018-06-24T07:06:48.145Z,67.70
2018-06-24T07:09:16.821Z,67.20
2018-06-24T07:11:45.313Z,66.20
2018-06-24T07:14:13.836Z,65.00
2018-06-24T07:16:42.369Z,64.40
2018-06-24T07:19:10.900Z,64.00
2018-06-24T07:21:39.515Z,64.60
2018-06-24T07:24:08.025Z,63.80
2018-06-24T07:26:36.714Z,63.90
2018-06-24T07:29:05.300Z,62.80
2018-06-24T07:31:33.804Z,62.90
2018-06-24T07:34:02.388Z,63.50
2018-06-24T07:36:31.083Z,63.10
2018-06-24T07:38:59.789Z,63.40
2018-06-24T07:41:28.594Z,63.20
2018-06-24T07:43:57.102Z,62.70
2018-06-24T07:46:25.644Z,62.40
2018-06-24T07:48:54.201Z,62.30
2018-06-24T07:51:22.882Z,62.50
2018-06-24T07:53:51.405Z,62.90
2018-06-24T07:56:20.066Z,60.20
2018-06-24T07:58:48.768Z,60.00
2018-06-24T08:01:17.266Z,59.80
2018-06-24T08:03:45.825Z,60.00
2018-06-24T08:06:14.361Z,59.70
2018-06-24T08:08:42.976Z,59.60
2018-06-24T08:11:11.521Z,60.00
2018-06-24T08:13:40.112Z,60.40
2018-06-24T08:16:08.688Z,60.40
2018-06-24T08:18:37.207Z,59.10
2018-06-24T08:21:05.799Z,59.20
2018-06-24T08:23:34.310Z,57.90
2018-06-24T08:26:02.887Z,57.40
2018-06-24T08:28:31.376Z,57.50
2018-06-24T08:30:59.869Z,57.90
2018-06-24T08:33:28.442Z,58.60
2018-06-24T08:35:56.945Z,59.10
2018-06-24T08:38:25.557Z,58.90
2018-06-24T08:40:54.107Z,57.70
2018-06-24T08:43:22.606Z,58.20
2018-06-24T08:45:51.136Z,59.30
2018-06-24T08:48:19.647Z,59.00
2018-06-24T08:50:48.440Z,58.50
2018-06-24T08:53:16.932Z,59.40
2018-06-24T08:55:45.674Z,58.70
2018-06-24T08:58:14.196Z,57.50
2018-06-24T09:00:42.775Z,56.90
2018-06-24T09:03:11.274Z,58.70
2018-06-24T09:08:08.169Z,57.40
2018-06-24T09:10:36.676Z,57.20
2018-06-24T09:13:05.345Z,56.90
2018-06-24T09:15:33.936Z,55.50
2018-06-24T09:18:02.453Z,55.70
2018-06-24T09:20:31.008Z,55.30
2018-06-24T09:22:59.491Z,56.20
2018-06-24T09:25:28.357Z,55.00
2018-06-24T09:27:56.946Z,54.90
2018-06-24T09:30:25.460Z,54.70
2018-06-24T09:32:54.048Z,54.90
2018-06-24T09:35:22.577Z,54.90
2018-06-24T09:37:51.259Z,55.20
2018-06-24T09:40:19.859Z,54.90
2018-06-24T09:42:49.541Z,54.90
2018-06-24T09:45:18.184Z,54.40
2018-06-24T09:47:46.785Z,54.80
2018-06-24T09:50:15.337Z,54.50
2018-06-24T09:52:43.977Z,54.90
2018-06-24T09:55:12.654Z,54.20
2018-06-24T09:57:41.262Z,53.00
2018-06-24T10:00:14.717Z,53.00
2018-06-24T10:02:43.283Z,53.30
2018-06-24T10:05:11.840Z,53.70
2018-06-24T10:07:40.522Z,54.00
2018-06-24T10:10:09.019Z,53.40
2018-06-24T10:12:37.654Z,54.30
2018-06-24T10:15:06.156Z,53.40
2018-06-24T10:17:34.816Z,52.60
2018-06-24T10:20:03.392Z,52.80
2018-06-24T10:22:32.039Z,53.20
2018-06-24T10:25:00.581Z,52.40
2018-06-24T10:27:30.709Z,52.30
2018-06-24T10:29:59.320Z,52.90
2018-06-24T10:32:27.848Z,52.90
2018-06-24T10:34:56.339Z,53.00
2018-06-24T10:37:24.877Z,53.40
2018-06-24T10:39:53.456Z,54.00
2018-06-24T10:42:21.944Z,53.60
2018-06-24T10:44:52.219Z,53.20
2018-06-24T10:47:20.834Z,53.40
2018-06-24T10:49:49.321Z,53.50
2018-06-24T10:52:17.852Z,53.80
2018-06-24T10:54:46.403Z,53.90
2018-06-24T10:57:14.919Z,54.30
2018-06-24T10:59:43.514Z,54.20
2018-06-24T11:02:12.055Z,53.70
2018-06-24T11:04:40.671Z,53.30
2018-06-24T11:07:09.194Z,53.90
2018-06-24T11:09:37.718Z,53.40
2018-06-24T11:12:06.240Z,53.10
2018-06-24T11:14:34.860Z,54.60
2018-06-24T11:17:03.424Z,53.60
2018-06-24T11:19:31.980Z,53.80
2018-06-24T11:22:00.484Z,53.20
2018-06-24T11:24:29.055Z,52.80
2018-06-24T11:26:57.573Z,53.40
2018-06-24T11:29:26.091Z,53.40
2018-06-24T11:31:54.771Z,53.90
2018-06-24T11:34:23.379Z,53.30
2018-06-24T11:36:51.959Z,51.80
2018-06-24T11:39:20.521Z,52.50
2018-06-24T11:41:49.046Z,53.60
2018-06-24T11:44:17.860Z,53.90
2018-06-24T11:46:46.357Z,53.40
2018-06-24T11:49:15.205Z,52.70
2018-06-24T11:51:43.817Z,53.30
2018-06-24T11:54:12.443Z,53.80
2018-06-24T11:59:09.572Z,53.50
2018-06-24T12:01:38.064Z,54.50
2018-06-24T12:04:06.811Z,54.50
2018-06-24T12:09:04.916Z,55.20
2018-06-24T12:11:33.447Z,53.20
2018-06-24T12:14:02.127Z,52.70
2018-06-24T12:16:30.632Z,51.30
2018-06-24T12:18:59.132Z,52.10
2018-06-24T12:21:27.685Z,53.80
2018-06-24T12:23:56.205Z,51.40
2018-06-24T12:26:24.852Z,52.50
2018-06-24T12:28:54.380Z,52.80
2018-06-24T12:31:22.968Z,50.00
2018-06-24T12:33:52.051Z,50.10
2018-06-24T12:36:25.263Z,50.40
2018-06-24T12:38:54.010Z,51.70
2018-06-24T12:41:22.528Z,50.30
2018-06-24T12:43:51.003Z,50.30
2018-06-24T12:46:19.524Z,51.10
2018-06-24T12:48:48.912Z,50.30
2018-06-24T12:51:17.484Z,48.20
2018-06-24T12:53:45.977Z,49.50
2018-06-24T12:56:14.676Z,49.90
2018-06-24T12:58:43.630Z,50.10
2018-06-24T13:01:12.342Z,51.00
2018-06-24T13:03:40.920Z,50.50
2018-06-24T13:06:09.512Z,50.50
2018-06-24T13:08:38.013Z,48.90
2018-06-24T13:11:06.541Z,49.50
2018-06-24T13:13:35.143Z,50.60
2018-06-24T13:16:03.775Z,50.30
2018-06-24T13:18:32.551Z,49.90
2018-06-24T13:21:01.188Z,49.10
2018-06-24T13:23:29.660Z,49.30
2018-06-24T13:25:58.251Z,50.10
2018-06-24T13:28:26.877Z,50.50
2018-06-24T13:30:55.657Z,50.00
2018-06-24T13:33:24.249Z,50.10
2018-06-24T13:35:52.776Z,50.60
2018-06-24T13:38:21.280Z,49.70
2018-06-24T13:40:49.779Z,49.70
2018-06-24T13:43:18.280Z,50.10
2018-06-24T13:45:46.857Z,50.30
2018-06-24T13:48:15.403Z,51.00
2018-06-24T13:50:43.919Z,49.40
2018-06-24T13:53:12.684Z,49.20
2018-06-24T13:55:41.693Z,50.00
2018-06-24T13:58:10.543Z,50.00
2018-06-24T14:00:39.044Z,50.60
2018-06-24T14:03:07.563Z,50.40
2018-06-24T14:05:36.040Z,50.60
2018-06-24T14:08:05.106Z,52.20
2018-06-24T14:10:33.600Z,52.00
2018-06-24T14:13:02.104Z,51.50
2018-06-24T14:15:30.566Z,50.50
2018-06-24T14:17:59.095Z,49.90
2018-06-24T14:22:55.815Z,50.20
2018-06-24T14:25:24.339Z,50.00
2018-06-24T14:27:52.876Z,50.60
2018-06-24T14:30:21.511Z,50.30
2018-06-24T14:32:50.036Z,50.20
2018-06-24T14:35:18.566Z,49.60
2018-06-24T14:37:47.068Z,49.60
2018-06-24T14:40:15.653Z,49.70
2018-06-24T14:42:44.243Z,49.90
2018-06-24T14:45:12.743Z,50.10
2018-06-24T14:47:41.251Z,50.10
2018-06-24T14:50:09.747Z,49.70
2018-06-24T14:52:38.259Z,50.00
2018-06-24T14:55:06.814Z,49.40
2018-06-24T14:57:35.306Z,49.70
2018-06-24T15:00:04.812Z,49.50
2018-06-24T15:02:35.121Z,51.40
2018-06-24T15:05:04.365Z,51.20
2018-06-24T15:07:32.908Z,49.60
2018-06-24T15:10:01.439Z,49.50
2018-06-24T15:12:30.197Z,49.60
2018-06-24T15:14:59.001Z,49.40
2018-06-24T15:17:27.523Z,49.50
2018-06-24T15:19:56.052Z,50.10
2018-06-24T15:22:24.527Z,50.50
2018-06-24T15:24:53.078Z,50.40
2018-06-24T15:27:21.592Z,50.30
2018-06-24T15:29:50.167Z,50.30
2018-06-24T15:32:18.621Z,49.70
2018-06-24T15:34:47.135Z,49.60
2018-06-24T15:37:15.622Z,49.20
2018-06-24T15:39:44.132Z,48.50
2018-06-24T15:42:12.917Z,49.10
2018-06-24T15:44:41.415Z,49.90
2018-06-24T15:47:10.012Z,49.60
2018-06-24T15:49:38.516Z,49.70
2018-06-24T15:52:07.089Z,49.70
2018-06-24T15:54:35.684Z,50.30
2018-06-24T15:57:04.244Z,50.30
2018-06-24T15:59:32.880Z,49.70
2018-06-24T16:02:01.523Z,50.60
2018-06-24T16:04:29.964Z,50.50
2018-06-24T16:06:58.752Z,50.30
2018-06-24T16:09:27.336Z,49.70
2018-06-24T16:11:55.875Z,49.80
2018-06-24T16:14:24.384Z,49.70
2018-06-24T16:16:53.444Z,49.10
2018-06-24T16:19:21.973Z,49.80
2018-06-24T16:21:50.681Z,50.30
2018-06-24T16:24:19.320Z,50.30
2018-06-24T16:26:47.919Z,50.20
2018-06-24T16:29:16.548Z,50.40
2018-06-24T16:31:45.415Z,50.40
2018-06-24T16:34:14.325Z,50.50
2018-06-24T16:36:43.177Z,50.90
2018-06-24T16:39:13.059Z,50.10
2018-06-24T16:41:47.411Z,50.40
2018-06-24T16:46:57.904Z,50.40
2018-06-24T16:49:43.862Z,50.60
2018-06-24T16:52:12.741Z,50.30
2018-06-24T16:54:41.289Z,50.50
2018-06-24T16:57:09.843Z,50.50
2018-06-24T16:59:38.578Z,50.70
2018-06-24T17:02:07.132Z,50.80
2018-06-24T17:04:35.859Z,50.60
2018-06-24T17:07:04.517Z,51.60
2018-06-24T17:09:33.040Z,51.80
2018-06-24T17:12:01.558Z,51.60
2018-06-24T17:14:30.074Z,51.30
2018-06-24T17:16:58.648Z,50.60
2018-06-24T17:19:27.139Z,51.10
2018-06-24T17:21:55.660Z,51.00
2018-06-24T17:24:24.148Z,51.00
2018-06-24T17:26:52.805Z,50.80
2018-06-24T17:29:21.322Z,50.20
2018-06-24T17:31:50.093Z,51.00
2018-06-24T17:34:18.623Z,50.50
2018-06-24T17:36:47.132Z,50.20
2018-06-24T17:39:15.766Z,50.30
2018-06-24T17:41:46.105Z,50.70
2018-06-24T17:44:15.179Z,50.50
2018-06-24T17:46:43.692Z,50.80
2018-06-24T17:49:12.240Z,51.60
2018-06-24T17:51:40.728Z,51.50
2018-06-24T17:54:09.300Z,50.70
2018-06-24T17:56:37.816Z,51.70
2018-06-24T17:59:06.332Z,51.90
2018-06-24T18:01:34.856Z,51.80
2018-06-24T18:04:03.633Z,52.00
2018-06-24T18:06:32.127Z,51.30
2018-06-24T18:09:00.651Z,51.30
2018-06-24T18:11:29.170Z,51.10
2018-06-24T18:13:57.720Z,51.20
2018-06-24T18:16:26.203Z,51.20
2018-06-24T18:18:54.712Z,51.90
2018-06-24T18:21:23.229Z,52.60
2018-06-24T18:23:51.778Z,53.20
2018-06-24T18:26:20.244Z,53.10
2018-06-24T18:28:48.904Z,52.90
2018-06-24T18:31:17.481Z,53.00
2018-06-24T18:33:46.071Z,53.00
2018-06-24T18:36:14.559Z,53.30
2018-06-24T18:38:43.833Z,53.30
2018-06-24T18:41:12.473Z,53.50
2018-06-24T18:43:40.996Z,53.60
2018-06-24T18:46:09.539Z,53.70
2018-06-24T18:48:38.077Z,53.30
2018-06-24T18:51:06.650Z,53.70
2018-06-24T18:53:35.246Z,54.10
2018-06-24T18:56:03.772Z,54.30
2018-06-24T18:58:32.299Z,54.00
2018-06-24T19:01:00.872Z,54.30
2018-06-24T19:03:29.384Z,54.40
2018-06-24T19:05:57.885Z,55.00
2018-06-24T19:08:26.404Z,54.70
2018-06-24T19:10:54.955Z,54.80
2018-06-24T19:15:51.754Z,55.20
2018-06-24T19:18:20.252Z,55.20
2018-06-24T19:20:48.748Z,54.80
2018-06-24T19:23:17.211Z,55.10
2018-06-24T19:25:45.698Z,55.40
2018-06-24T19:28:14.181Z,55.30
2018-06-24T19:30:42.839Z,55.70
2018-06-24T19:33:11.407Z,55.90
2018-06-24T19:35:39.898Z,56.20
2018-06-24T19:38:08.484Z,56.50
2018-06-24T19:40:36.975Z,57.40
2018-06-24T19:43:05.640Z,56.30
2018-06-24T19:45:34.120Z,56.50
2018-06-24T19:48:02.590Z,56.70
2018-06-24T19:52:59.362Z,56.00
2018-06-24T19:55:27.861Z,56.50
2018-06-24T19:57:56.369Z,56.30
2018-06-24T20:00:24.852Z,56.80
2018-06-24T20:02:53.308Z,56.40
2018-06-24T20:05:21.814Z,56.80
2018-06-24T20:10:18.678Z,56.90
2018-06-24T20:12:47.152Z,56.90
2018-06-24T20:15:15.648Z,57.10
2018-06-24T20:17:44.154Z,57.70
2018-06-24T20:20:12.773Z,58.00
2018-06-24T20:22:41.235Z,57.90
2018-06-24T20:25:09.740Z,57.80
2018-06-24T20:27:38.516Z,57.90
2018-06-24T20:30:07.687Z,57.80
2018-06-24T20:35:04.617Z,57.80
2018-06-24T20:37:33.121Z,57.50
2018-06-24T20:40:01.604Z,57.50
2018-06-24T20:42:30.253Z,57.80
2018-06-24T20:44:58.727Z,57.10
2018-06-24T20:47:27.304Z,57.30
2018-06-24T20:49:55.853Z,57.10
2018-06-24T20:52:24.567Z,57.10
2018-06-24T20:54:53.054Z,57.30
2018-06-24T20:57:21.574Z,57.10
2018-06-24T20:59:50.363Z,57.30
2018-06-24T21:02:18.919Z,57.40
2018-06-24T21:04:47.428Z,57.30
2018-06-24T21:07:15.919Z,56.80
2018-06-24T21:09:44.637Z,57.00
2018-06-24T21:12:13.216Z,57.30
2018-06-24T21:14:41.681Z,57.20
2018-06-24T21:17:10.421Z,56.50
2018-06-24T21:19:38.941Z,56.70
2018-06-24T21:22:07.509Z,56.90
2018-06-24T21:24:37.805Z,56.30
2018-06-24T21:27:07.553Z,56.50
2018-06-24T21:29:36.227Z,57.10
2018-06-24T21:32:04.957Z,56.10
2018-06-24T21:34:33.585Z,56.20
2018-06-24T21:37:02.228Z,56.10
2018-06-24T21:39:30.907Z,55.90
2018-06-24T21:41:59.612Z,56.00
2018-06-24T21:44:28.116Z,56.20
2018-06-24T21:46:56.701Z,55.80
2018-06-24T21:49:25.194Z,55.80
2018-06-24T21:51:54.409Z,55.80
2018-06-24T21:54:23.336Z,56.00
2018-06-24T21:56:51.951Z,56.30
2018-06-24T21:59:20.800Z,56.40
2018-06-24T22:01:49.302Z,56.60
2018-06-24T22:04:18.260Z,56.80
2018-06-24T22:06:46.980Z,56.80
2018-06-24T22:09:15.484Z,56.90
2018-06-24T22:11:44.080Z,56.50
2018-06-24T22:14:12.652Z,56.40
2018-06-24T22:16:41.387Z,56.80
2018-06-24T22:19:10.355Z,56.50
2018-06-24T22:21:38.957Z,56.60
2018-06-24T22:24:07.500Z,56.80
2018-06-24T22:26:36.023Z,57.00
2018-06-24T22:29:04.629Z,56.90
2018-06-24T22:31:33.203Z,57.10
2018-06-24T22:34:01.721Z,57.30
2018-06-24T22:36:30.268Z,57.00
2018-06-24T22:38:58.768Z,57.10
2018-06-24T22:41:27.307Z,57.30
2018-06-24T22:43:55.807Z,57.20
2018-06-24T22:48:52.591Z,57.10
2018-06-24T22:51:21.086Z,57.40
2018-06-24T22:53:50.609Z,57.20
2018-06-24T22:56:19.114Z,57.40
2018-06-24T23:00:07.892Z,57.60
2018-06-24T23:02:36.628Z,57.90
2018-06-24T23:05:05.160Z,57.90
2018-06-24T23:07:33.642Z,58.10
2018-06-24T23:10:02.503Z,58.20
2018-06-24T23:12:31.448Z,57.40
2018-06-24T23:14:59.956Z,57.80
2018-06-24T23:17:28.528Z,58.00
2018-06-24T23:19:57.084Z,58.30
2018-06-24T23:22:25.578Z,58.30
2018-06-24T23:24:54.130Z,58.30
2018-06-24T23:27:22.678Z,58.50
2018-06-24T23:29:51.581Z,58.30
2018-06-24T23:32:20.203Z,58.10
2018-06-24T23:34:48.900Z,58.40
2018-06-24T23:37:17.395Z,58.50
2018-06-24T23:39:45.927Z,58.50
2018-06-24T23:42:14.522Z,58.30
2018-06-24T23:44:43.057Z,58.70
2018-06-24T23:47:11.629Z,58.70
2018-06-24T23:49:40.214Z,58.60
2018-06-24T23:52:08.725Z,58.80
2018-06-24T23:54:37.229Z,58.70
2018-06-24T23:57:05.987Z,58.70
2018-06-24T23:59:34.487Z,58.70
